sensor_id;sensor_type;location;lat;lon;timestamp;pressure;altitude;pressure_sealevel;temperature
47484;BMP280;54076;50.322;18.650;2022-10-31T00:04:06;99484.51;;;13.53
47484;BMP280;54076;50.322;18.650;2022-10-31T00:09:09;99486.30;;;13.44
47484;BMP280;54076;50.322;18.650;2022-10-31T00:14:10;99487.67;;;13.35
47484;BMP280;54076;50.322;18.650;2022-10-31T00:19:11;99488.97;;;13.35
47484;BMP280;54076;50.322;18.650;2022-10-31T00:24:12;99488.23;;;13.26
47484;BMP280;54076;50.322;18.650;2022-10-31T00:29:13;99486.06;;;13.36
47484;BMP280;54076;50.322;18.650;2022-10-31T00:34:14;99492.77;;;13.30
47484;BMP280;54076;50.322;18.650;2022-10-31T00:39:15;99493.04;;;13.26
47484;BMP280;54076;50.322;18.650;2022-10-31T00:44:16;99492.55;;;13.26
47484;BMP280;54076;50.322;18.650;2022-10-31T00:49:17;99497.37;;;13.15
47484;BMP280;54076;50.322;18.650;2022-10-31T00:54:18;99495.77;;;13.03
47484;BMP280;54076;50.322;18.650;2022-10-31T00:59:19;99496.64;;;12.93
47484;BMP280;54076;50.322;18.650;2022-10-31T01:04:19;99502.40;;;12.87
47484;BMP280;54076;50.322;18.650;2022-10-31T01:09:20;99502.02;;;12.70
47484;BMP280;54076;50.322;18.650;2022-10-31T01:14:21;99503.03;;;12.63
47484;BMP280;54076;50.322;18.650;2022-10-31T01:19:22;99497.11;;;12.56
47484;BMP280;54076;50.322;18.650;2022-10-31T01:24:23;99503.40;;;12.58
47484;BMP280;54076;50.322;18.650;2022-10-31T01:29:24;99497.85;;;12.31
47484;BMP280;54076;50.322;18.650;2022-10-31T01:34:25;99496.95;;;12.10
47484;BMP280;54076;50.322;18.650;2022-10-31T01:39:26;99496.98;;;11.96
47484;BMP280;54076;50.322;18.650;2022-10-31T01:55:11;99485.48;;;12.10
47484;BMP280;54076;50.322;18.650;2022-10-31T02:00:15;99486.17;;;12.41
47484;BMP280;54076;50.322;18.650;2022-10-31T02:05:20;99485.55;;;12.23
47484;BMP280;54076;50.322;18.650;2022-10-31T02:10:23;99492.53;;;12.27
47484;BMP280;54076;50.322;18.650;2022-10-31T02:15:25;99500.15;;;12.29
47484;BMP280;54076;50.322;18.650;2022-10-31T02:20:58;99494.71;;;12.29
47484;BMP280;54076;50.322;18.650;2022-10-31T02:26:12;99503.91;;;12.26
47484;BMP280;54076;50.322;18.650;2022-10-31T02:31:39;99500.79;;;12.33
47484;BMP280;54076;50.322;18.650;2022-10-31T02:37:03;99501.14;;;12.45
47484;BMP280;54076;50.322;18.650;2022-10-31T02:48:12;99508.27;;;12.29
47484;BMP280;54076;50.322;18.650;2022-10-31T02:53:15;99507.29;;;12.24
47484;BMP280;54076;50.322;18.650;2022-10-31T02:58:22;99508.95;;;12.27
47484;BMP280;54076;50.322;18.650;2022-10-31T03:03:36;99508.86;;;12.32
47484;BMP280;54076;50.322;18.650;2022-10-31T03:14:02;99516.99;;;12.29
47484;BMP280;54076;50.322;18.650;2022-10-31T03:19:09;99516.77;;;12.12
47484;BMP280;54076;50.322;18.650;2022-10-31T03:24:13;99523.95;;;12.03
47484;BMP280;54076;50.322;18.650;2022-10-31T03:29:18;99521.95;;;12.07
47484;BMP280;54076;50.322;18.650;2022-10-31T03:34:20;99525.05;;;12.00
47484;BMP280;54076;50.322;18.650;2022-10-31T03:39:22;99528.13;;;11.97
47484;BMP280;54076;50.322;18.650;2022-10-31T03:44:25;99529.52;;;11.93
47484;BMP280;54076;50.322;18.650;2022-10-31T03:49:27;99533.15;;;11.89
47484;BMP280;54076;50.322;18.650;2022-10-31T03:54:44;99535.63;;;11.91
47484;BMP280;54076;50.322;18.650;2022-10-31T03:59:51;99535.38;;;11.82
47484;BMP280;54076;50.322;18.650;2022-10-31T04:04:54;99539.17;;;11.82
47484;BMP280;54076;50.322;18.650;2022-10-31T04:09:56;99544.34;;;11.92
47484;BMP280;54076;50.322;18.650;2022-10-31T04:14:58;99547.91;;;11.92
47484;BMP280;54076;50.322;18.650;2022-10-31T04:20:00;99549.11;;;11.75
47484;BMP280;54076;50.322;18.650;2022-10-31T04:25:01;99547.80;;;11.76
47484;BMP280;54076;50.322;18.650;2022-10-31T04:30:03;99549.95;;;11.72
47484;BMP280;54076;50.322;18.650;2022-10-31T04:35:05;99552.07;;;11.59
47484;BMP280;54076;50.322;18.650;2022-10-31T04:40:07;99559.04;;;11.50
47484;BMP280;54076;50.322;18.650;2022-10-31T04:45:09;99559.48;;;11.51
47484;BMP280;54076;50.322;18.650;2022-10-31T04:50:09;99566.70;;;11.67
47484;BMP280;54076;50.322;18.650;2022-10-31T04:55:11;99565.13;;;11.73
47484;BMP280;54076;50.322;18.650;2022-10-31T05:00:15;99560.88;;;11.57
47484;BMP280;54076;50.322;18.650;2022-10-31T05:05:21;99561.81;;;11.54
47484;BMP280;54076;50.322;18.650;2022-10-31T05:10:26;99566.98;;;11.37
47484;BMP280;54076;50.322;18.650;2022-10-31T05:15:28;99563.20;;;11.09
47484;BMP280;54076;50.322;18.650;2022-10-31T05:20:30;99562.77;;;10.93
47484;BMP280;54076;50.322;18.650;2022-10-31T05:25:31;99563.30;;;10.88
47484;BMP280;54076;50.322;18.650;2022-10-31T05:30:33;99568.58;;;10.90
47484;BMP280;54076;50.322;18.650;2022-10-31T05:35:34;99571.58;;;10.77
47484;BMP280;54076;50.322;18.650;2022-10-31T05:40:35;99573.73;;;10.64
47484;BMP280;54076;50.322;18.650;2022-10-31T05:45:36;99581.54;;;10.48
47484;BMP280;54076;50.322;18.650;2022-10-31T05:50:37;99588.38;;;10.40
47484;BMP280;54076;50.322;18.650;2022-10-31T05:55:38;99590.89;;;10.25
47484;BMP280;54076;50.322;18.650;2022-10-31T06:00:41;99593.94;;;10.22
47484;BMP280;54076;50.322;18.650;2022-10-31T06:05:42;99601.14;;;10.42
47484;BMP280;54076;50.322;18.650;2022-10-31T06:10:43;99608.63;;;10.61
47484;BMP280;54076;50.322;18.650;2022-10-31T06:15:44;99608.48;;;10.71
47484;BMP280;54076;50.322;18.650;2022-10-31T06:20:45;99610.04;;;10.77
47484;BMP280;54076;50.322;18.650;2022-10-31T06:25:50;99615.18;;;10.80
47484;BMP280;54076;50.322;18.650;2022-10-31T06:30:51;99614.67;;;10.93
47484;BMP280;54076;50.322;18.650;2022-10-31T06:35:52;99621.02;;;11.46
47484;BMP280;54076;50.322;18.650;2022-10-31T06:40:53;99622.52;;;11.76
47484;BMP280;54076;50.322;18.650;2022-10-31T06:45:55;99626.73;;;11.96
47484;BMP280;54076;50.322;18.650;2022-10-31T06:51:00;99626.11;;;12.31
47484;BMP280;54076;50.322;18.650;2022-10-31T06:56:01;99634.39;;;12.16
47484;BMP280;54076;50.322;18.650;2022-10-31T07:01:02;99638.70;;;12.10
47484;BMP280;54076;50.322;18.650;2022-10-31T07:06:03;99640.40;;;12.18
47484;BMP280;54076;50.322;18.650;2022-10-31T07:11:04;99639.34;;;12.28
47484;BMP280;54076;50.322;18.650;2022-10-31T07:16:06;99641.59;;;12.27
47484;BMP280;54076;50.322;18.650;2022-10-31T07:21:07;99641.98;;;12.27
47484;BMP280;54076;50.322;18.650;2022-10-31T07:26:10;99645.05;;;12.29
47484;BMP280;54076;50.322;18.650;2022-10-31T07:31:11;99644.84;;;12.37
47484;BMP280;54076;50.322;18.650;2022-10-31T07:36:12;99645.02;;;12.52
47484;BMP280;54076;50.322;18.650;2022-10-31T07:41:13;99645.45;;;12.52
47484;BMP280;54076;50.322;18.650;2022-10-31T07:46:13;99645.35;;;12.76
47484;BMP280;54076;50.322;18.650;2022-10-31T07:51:14;99648.71;;;12.96
47484;BMP280;54076;50.322;18.650;2022-10-31T07:56:15;99652.73;;;13.05
47484;BMP280;54076;50.322;18.650;2022-10-31T08:01:16;99648.70;;;13.23
47484;BMP280;54076;50.322;18.650;2022-10-31T08:06:17;99646.36;;;13.36
47484;BMP280;54076;50.322;18.650;2022-10-31T08:11:18;99647.08;;;13.56
47484;BMP280;54076;50.322;18.650;2022-10-31T08:16:19;99649.52;;;13.66
47484;BMP280;54076;50.322;18.650;2022-10-31T08:21:20;99649.94;;;13.79
47484;BMP280;54076;50.322;18.650;2022-10-31T08:26:21;99652.41;;;13.91
47484;BMP280;54076;50.322;18.650;2022-10-31T08:31:22;99651.05;;;14.29
47484;BMP280;54076;50.322;18.650;2022-10-31T08:36:23;99646.47;;;14.42
47484;BMP280;54076;50.322;18.650;2022-10-31T08:41:24;99648.62;;;14.64
47484;BMP280;54076;50.322;18.650;2022-10-31T08:46:25;99647.32;;;14.79
47484;BMP280;54076;50.322;18.650;2022-10-31T08:51:26;99647.47;;;15.05
47484;BMP280;54076;50.322;18.650;2022-10-31T08:56:27;99642.58;;;15.21
47484;BMP280;54076;50.322;18.650;2022-10-31T09:01:28;99639.92;;;15.46
47484;BMP280;54076;50.322;18.650;2022-10-31T09:06:29;99645.27;;;15.78
47484;BMP280;54076;50.322;18.650;2022-10-31T09:11:31;99645.10;;;16.08
47484;BMP280;54076;50.322;18.650;2022-10-31T09:16:32;99642.36;;;16.31
47484;BMP280;54076;50.322;18.650;2022-10-31T09:21:32;99643.62;;;16.55
47484;BMP280;54076;50.322;18.650;2022-10-31T09:26:34;99640.29;;;16.94
47484;BMP280;54076;50.322;18.650;2022-10-31T09:31:35;99643.75;;;17.05
47484;BMP280;54076;50.322;18.650;2022-10-31T09:36:38;99644.45;;;17.18
47484;BMP280;54076;50.322;18.650;2022-10-31T09:42:33;99645.73;;;17.35
47484;BMP280;54076;50.322;18.650;2022-10-31T09:58:30;99640.73;;;18.12
47484;BMP280;54076;50.322;18.650;2022-10-31T10:03:47;99635.89;;;18.36
47484;BMP280;54076;50.322;18.650;2022-10-31T10:08:50;99631.55;;;18.38
47484;BMP280;54076;50.322;18.650;2022-10-31T10:14:33;99633.88;;;18.57
47484;BMP280;54076;50.322;18.650;2022-10-31T10:20:15;99630.17;;;19.13
47484;BMP280;54076;50.322;18.650;2022-10-31T10:25:24;99626.81;;;19.55
47484;BMP280;54076;50.322;18.650;2022-10-31T10:30:38;99627.95;;;20.53
47484;BMP280;54076;50.322;18.650;2022-10-31T10:35:52;99624.80;;;21.59
47484;BMP280;54076;50.322;18.650;2022-10-31T10:40:54;99623.64;;;22.77
47484;BMP280;54076;50.322;18.650;2022-10-31T11:02:23;99610.48;;;24.79
47484;BMP280;54076;50.322;18.650;2022-10-31T11:07:24;99605.76;;;24.78
47484;BMP280;54076;50.322;18.650;2022-10-31T11:12:30;99601.77;;;25.33
47484;BMP280;54076;50.322;18.650;2022-10-31T11:17:39;99598.77;;;25.74
47484;BMP280;54076;50.322;18.650;2022-10-31T11:22:43;99592.46;;;26.02
47484;BMP280;54076;50.322;18.650;2022-10-31T11:27:46;99589.66;;;26.16
47484;BMP280;54076;50.322;18.650;2022-10-31T11:32:49;99585.61;;;26.57
47484;BMP280;54076;50.322;18.650;2022-10-31T11:37:58;99582.94;;;26.81
47484;BMP280;54076;50.322;18.650;2022-10-31T11:42:59;99576.81;;;27.16
47484;BMP280;54076;50.322;18.650;2022-10-31T11:48:02;99568.52;;;27.31
47484;BMP280;54076;50.322;18.650;2022-10-31T11:53:12;99564.85;;;27.21
47484;BMP280;54076;50.322;18.650;2022-10-31T11:58:24;99561.06;;;27.44
47484;BMP280;54076;50.322;18.650;2022-10-31T12:08:37;99551.00;;;26.71
47484;BMP280;54076;50.322;18.650;2022-10-31T12:25:50;99537.36;;;28.14
47484;BMP280;54076;50.322;18.650;2022-10-31T12:52:19;99526.90;;;26.25
47484;BMP280;54076;50.322;18.650;2022-10-31T12:57:35;99519.30;;;26.67
47484;BMP280;54076;50.322;18.650;2022-10-31T13:02:51;99518.63;;;26.28
47484;BMP280;54076;50.322;18.650;2022-10-31T13:08:23;99509.98;;;25.45
47484;BMP280;54076;50.322;18.650;2022-10-31T13:19:03;99508.95;;;25.17
47484;BMP280;54076;50.322;18.650;2022-10-31T13:24:13;99511.00;;;25.10
47484;BMP280;54076;50.322;18.650;2022-10-31T13:34:38;99507.05;;;24.35
47484;BMP280;54076;50.322;18.650;2022-10-31T13:40:30;99508.02;;;23.68
47484;BMP280;54076;50.322;18.650;2022-10-31T13:45:33;99507.80;;;23.52
47484;BMP280;54076;50.322;18.650;2022-10-31T13:50:34;99512.53;;;22.73
47484;BMP280;54076;50.322;18.650;2022-10-31T14:00:43;99513.14;;;22.45
47484;BMP280;54076;50.322;18.650;2022-10-31T14:05:53;99510.30;;;22.42
47484;BMP280;54076;50.322;18.650;2022-10-31T14:10:55;99512.55;;;22.07
47484;BMP280;54076;50.322;18.650;2022-10-31T14:16:04;99517.75;;;21.87
47484;BMP280;54076;50.322;18.650;2022-10-31T14:31:42;99512.31;;;21.49
47484;BMP280;54076;50.322;18.650;2022-10-31T14:47:40;99499.11;;;20.97
47484;BMP280;54076;50.322;18.650;2022-10-31T14:52:48;99496.55;;;20.90
47484;BMP280;54076;50.322;18.650;2022-10-31T14:58:01;99487.80;;;20.85
47484;BMP280;54076;50.322;18.650;2022-10-31T15:03:15;99484.88;;;20.76
47484;BMP280;54076;50.322;18.650;2022-10-31T15:08:52;99487.21;;;20.63
47484;BMP280;54076;50.322;18.650;2022-10-31T15:13:57;99488.02;;;20.45
47484;BMP280;54076;50.322;18.650;2022-10-31T15:19:05;99487.30;;;20.22
47484;BMP280;54076;50.322;18.650;2022-10-31T15:24:12;99481.63;;;20.01
47484;BMP280;54076;50.322;18.650;2022-10-31T15:29:21;99492.11;;;19.54
47484;BMP280;54076;50.322;18.650;2022-10-31T15:34:34;99486.58;;;19.11
47484;BMP280;54076;50.322;18.650;2022-10-31T15:39:37;99483.65;;;19.05
47484;BMP280;54076;50.322;18.650;2022-10-31T15:44:41;99481.42;;;18.80
47484;BMP280;54076;50.322;18.650;2022-10-31T15:49:55;99491.20;;;18.31
47484;BMP280;54076;50.322;18.650;2022-10-31T16:00:32;99495.81;;;18.19
47484;BMP280;54076;50.322;18.650;2022-10-31T16:05:52;99498.94;;;18.00
47484;BMP280;54076;50.322;18.650;2022-10-31T16:10:56;99502.02;;;17.81
47484;BMP280;54076;50.322;18.650;2022-10-31T16:16:09;99511.55;;;17.59
47484;BMP280;54076;50.322;18.650;2022-10-31T16:21:12;99519.35;;;17.31
47484;BMP280;54076;50.322;18.650;2022-10-31T16:26:18;99516.32;;;17.11
47484;BMP280;54076;50.322;18.650;2022-10-31T16:31:29;99519.48;;;17.13
47484;BMP280;54076;50.322;18.650;2022-10-31T16:36:33;99526.45;;;16.96
47484;BMP280;54076;50.322;18.650;2022-10-31T16:41:41;99530.11;;;16.58
47484;BMP280;54076;50.322;18.650;2022-10-31T16:46:43;99527.51;;;16.27
47484;BMP280;54076;50.322;18.650;2022-10-31T16:51:44;99528.42;;;16.35
47484;BMP280;54076;50.322;18.650;2022-10-31T16:56:44;99530.73;;;16.14
47484;BMP280;54076;50.322;18.650;2022-10-31T17:01:48;99532.42;;;15.93
47484;BMP280;54076;50.322;18.650;2022-10-31T17:06:53;99534.58;;;15.85
47484;BMP280;54076;50.322;18.650;2022-10-31T17:11:54;99536.23;;;15.69
47484;BMP280;54076;50.322;18.650;2022-10-31T17:16:55;99538.11;;;15.59
47484;BMP280;54076;50.322;18.650;2022-10-31T17:21:56;99539.25;;;15.39
47484;BMP280;54076;50.322;18.650;2022-10-31T17:26:57;99537.46;;;15.38
47484;BMP280;54076;50.322;18.650;2022-10-31T17:31:58;99533.48;;;15.26
47484;BMP280;54076;50.322;18.650;2022-10-31T17:37:00;99534.19;;;15.10
47484;BMP280;54076;50.322;18.650;2022-10-31T17:42:01;99538.66;;;14.88
47484;BMP280;54076;50.322;18.650;2022-10-31T17:47:01;99543.52;;;14.75
47484;BMP280;54076;50.322;18.650;2022-10-31T17:52:05;99543.83;;;14.69
47484;BMP280;54076;50.322;18.650;2022-10-31T17:57:05;99549.39;;;14.50
47484;BMP280;54076;50.322;18.650;2022-10-31T18:02:09;99552.63;;;14.28
47484;BMP280;54076;50.322;18.650;2022-10-31T18:07:10;99549.34;;;14.48
47484;BMP280;54076;50.322;18.650;2022-10-31T18:12:11;99545.34;;;14.57
47484;BMP280;54076;50.322;18.650;2022-10-31T18:17:12;99540.92;;;14.36
47484;BMP280;54076;50.322;18.650;2022-10-31T18:22:13;99545.91;;;14.15
47484;BMP280;54076;50.322;18.650;2022-10-31T18:27:14;99544.88;;;13.99
47484;BMP280;54076;50.322;18.650;2022-10-31T18:32:15;99535.41;;;14.13
47484;BMP280;54076;50.322;18.650;2022-10-31T18:37:16;99533.30;;;13.85
47484;BMP280;54076;50.322;18.650;2022-10-31T18:42:17;99531.84;;;13.72
47484;BMP280;54076;50.322;18.650;2022-10-31T18:47:17;99527.71;;;13.67
47484;BMP280;54076;50.322;18.650;2022-10-31T18:52:19;99517.92;;;13.67
47484;BMP280;54076;50.322;18.650;2022-10-31T18:57:20;99513.83;;;13.52
47484;BMP280;54076;50.322;18.650;2022-10-31T19:02:21;99515.78;;;13.37
47484;BMP280;54076;50.322;18.650;2022-10-31T19:07:22;99524.84;;;13.24
47484;BMP280;54076;50.322;18.650;2022-10-31T19:12:23;99528.13;;;13.16
47484;BMP280;54076;50.322;18.650;2022-10-31T19:17:24;99525.38;;;13.08
47484;BMP280;54076;50.322;18.650;2022-10-31T19:22:25;99524.04;;;13.07
47484;BMP280;54076;50.322;18.650;2022-10-31T19:27:26;99523.80;;;12.98
47484;BMP280;54076;50.322;18.650;2022-10-31T19:32:28;99520.70;;;12.85
47484;BMP280;54076;50.322;18.650;2022-10-31T19:37:29;99518.14;;;12.83
47484;BMP280;54076;50.322;18.650;2022-10-31T19:42:30;99513.61;;;12.77
47484;BMP280;54076;50.322;18.650;2022-10-31T19:47:32;99511.54;;;12.70
47484;BMP280;54076;50.322;18.650;2022-10-31T19:52:34;99508.66;;;12.69
47484;BMP280;54076;50.322;18.650;2022-10-31T19:57:35;99505.19;;;12.71
47484;BMP280;54076;50.322;18.650;2022-10-31T20:02:36;99507.38;;;12.62
47484;BMP280;54076;50.322;18.650;2022-10-31T20:07:38;99505.27;;;12.51
47484;BMP280;54076;50.322;18.650;2022-10-31T20:12:38;99500.91;;;12.50
47484;BMP280;54076;50.322;18.650;2022-10-31T20:17:39;99495.84;;;12.75
47484;BMP280;54076;50.322;18.650;2022-10-31T20:22:40;99494.99;;;12.78
47484;BMP280;54076;50.322;18.650;2022-10-31T20:27:42;99491.26;;;12.83
47484;BMP280;54076;50.322;18.650;2022-10-31T20:32:42;99496.69;;;12.97
47484;BMP280;54076;50.322;18.650;2022-10-31T20:37:43;99498.43;;;12.99
47484;BMP280;54076;50.322;18.650;2022-10-31T20:42:44;99498.42;;;12.92
47484;BMP280;54076;50.322;18.650;2022-10-31T20:47:45;99492.61;;;12.71
47484;BMP280;54076;50.322;18.650;2022-10-31T20:52:46;99492.77;;;12.77
47484;BMP280;54076;50.322;18.650;2022-10-31T20:57:50;99485.88;;;12.78
47484;BMP280;54076;50.322;18.650;2022-10-31T21:02:58;99480.59;;;12.95
47484;BMP280;54076;50.322;18.650;2022-10-31T21:08:01;99479.41;;;13.00
47484;BMP280;54076;50.322;18.650;2022-10-31T21:13:08;99474.25;;;12.82
47484;BMP280;54076;50.322;18.650;2022-10-31T21:18:10;99473.30;;;12.60
47484;BMP280;54076;50.322;18.650;2022-10-31T21:23:15;99466.67;;;12.23
47484;BMP280;54076;50.322;18.650;2022-10-31T21:28:16;99465.11;;;12.11
47484;BMP280;54076;50.322;18.650;2022-10-31T21:33:23;99469.32;;;12.14
47484;BMP280;54076;50.322;18.650;2022-10-31T21:38:24;99467.90;;;11.95
47484;BMP280;54076;50.322;18.650;2022-10-31T21:43:28;99451.49;;;12.05
47484;BMP280;54076;50.322;18.650;2022-10-31T21:48:29;99449.23;;;12.03
47484;BMP280;54076;50.322;18.650;2022-10-31T21:53:30;99448.90;;;12.05
47484;BMP280;54076;50.322;18.650;2022-10-31T21:58:51;99442.90;;;11.79
47484;BMP280;54076;50.322;18.650;2022-10-31T22:03:53;99433.10;;;12.05
47484;BMP280;54076;50.322;18.650;2022-10-31T22:08:56;99432.37;;;12.09
47484;BMP280;54076;50.322;18.650;2022-10-31T22:13:59;99429.84;;;11.99
47484;BMP280;54076;50.322;18.650;2022-10-31T22:19:02;99424.59;;;12.02
47484;BMP280;54076;50.322;18.650;2022-10-31T22:24:06;99425.38;;;12.23
47484;BMP280;54076;50.322;18.650;2022-10-31T22:29:17;99421.00;;;12.27
47484;BMP280;54076;50.322;18.650;2022-10-31T22:34:18;99411.36;;;12.39
47484;BMP280;54076;50.322;18.650;2022-10-31T22:39:19;99410.02;;;12.40
47484;BMP280;54076;50.322;18.650;2022-10-31T22:44:20;99406.90;;;12.38
47484;BMP280;54076;50.322;18.650;2022-10-31T22:49:21;99406.44;;;12.42
47484;BMP280;54076;50.322;18.650;2022-10-31T22:54:22;99408.96;;;12.33
47484;BMP280;54076;50.322;18.650;2022-10-31T22:59:23;99412.38;;;12.29
47484;BMP280;54076;50.322;18.650;2022-10-31T23:04:24;99414.45;;;11.85
47484;BMP280;54076;50.322;18.650;2022-10-31T23:09:25;99409.20;;;11.65
47484;BMP280;54076;50.322;18.650;2022-10-31T23:14:26;99394.19;;;11.77
47484;BMP280;54076;50.322;18.650;2022-10-31T23:19:29;99391.55;;;12.05
47484;BMP280;54076;50.322;18.650;2022-10-31T23:29:52;99392.20;;;11.97
47484;BMP280;54076;50.322;18.650;2022-10-31T23:34:57;99393.49;;;11.90
47484;BMP280;54076;50.322;18.650;2022-10-31T23:39:58;99398.13;;;11.74
47484;BMP280;54076;50.322;18.650;2022-10-31T23:45:00;99406.41;;;11.59
47484;BMP280;54076;50.322;18.650;2022-10-31T23:50:00;99412.56;;;11.46
47484;BMP280;54076;50.322;18.650;2022-10-31T23:55:01;99412.90;;;11.42
